Sitka, South Dakota
Current Conditions -  °F | °C
As of 4:52 AM on Tuesday 21 Oct 2014 (Local Time) from KMBG Reporting Station
Clear Clear  
Wind Chill: 13°   Ceiling: Unl
Heat Index: 13°   Visibility: 10mi
Dew Point:   Wind: 12mph
Humidity: 57%   Direction: 150°SSE
Pressure: 29.84"   Gusts: NA
Location:  45.4184°N, 100.09°W
Report Text: KMBG 210952Z AUTO 15010KT 10SM CLR 13/04 A2984 RMK AO2 SLP099 T01280044
Loading
Personal Weather Stations






























Interactive Weather Map
Tropical Storm Tracking
New forecast layout! Learn more

10-Day Weather Forecast

Advertisements
Track Severe Weather on mobile